createdAt,value
2018-09-19T00:01:36.949Z,60.20
2018-09-19T00:04:06.213Z,60.70
2018-09-19T00:06:35.638Z,61.50
2018-09-19T00:09:07.082Z,60.70
2018-09-19T00:11:36.538Z,60.90
2018-09-19T00:14:05.750Z,60.90
2018-09-19T00:16:34.881Z,61.00
2018-09-19T00:19:04.274Z,61.00
2018-09-19T00:21:33.426Z,61.30
2018-09-19T00:24:02.598Z,61.50
2018-09-19T00:26:31.803Z,61.40
2018-09-19T00:29:01.134Z,61.60
2018-09-19T00:31:30.746Z,62.10
2018-09-19T00:33:59.924Z,62.50
2018-09-19T00:36:29.033Z,63.00
2018-09-19T00:38:58.191Z,63.30
2018-09-19T00:41:27.359Z,63.70
2018-09-19T00:43:56.789Z,63.40
2018-09-19T00:46:26.347Z,63.60
2018-09-19T00:48:55.839Z,63.90
2018-09-19T00:51:25.306Z,64.20
2018-09-19T00:53:54.373Z,64.30
2018-09-19T00:56:23.657Z,64.60
2018-09-19T00:58:52.907Z,64.60
2018-09-19T01:01:22.172Z,64.60
2018-09-19T01:03:51.230Z,64.70
2018-09-19T01:06:20.652Z,64.80
2018-09-19T01:08:49.773Z,64.80
2018-09-19T01:11:19.274Z,64.70
2018-09-19T01:13:51.307Z,64.80
2018-09-19T01:16:21.266Z,65.00
2018-09-19T01:18:50.535Z,64.90
2018-09-19T01:21:19.609Z,65.00
2018-09-19T01:23:49.096Z,65.10
2018-09-19T01:26:19.320Z,65.20
2018-09-19T01:28:48.520Z,65.10
2018-09-19T01:31:17.763Z,65.40
2018-09-19T01:33:47.216Z,65.60
2018-09-19T01:36:16.423Z,66.00
2018-09-19T01:38:46.180Z,66.10
2018-09-19T01:41:15.620Z,66.30
2018-09-19T01:43:44.757Z,66.70
2018-09-19T01:46:14.220Z,66.70
2018-09-19T01:48:43.566Z,66.50
2018-09-19T01:51:13.158Z,66.50
2018-09-19T01:53:42.344Z,66.80
2018-09-19T01:56:11.858Z,66.70
2018-09-19T01:58:41.368Z,67.90
2018-09-19T02:01:10.581Z,67.00
2018-09-19T02:03:39.667Z,67.10
2018-09-19T02:06:08.900Z,67.10
2018-09-19T02:08:38.224Z,67.20
2018-09-19T02:11:07.618Z,67.40
2018-09-19T02:13:36.844Z,67.50
2018-09-19T02:16:05.992Z,67.50
2018-09-19T02:18:35.078Z,67.50
2018-09-19T02:21:04.272Z,67.90
2018-09-19T02:23:33.423Z,67.50
2018-09-19T02:26:02.752Z,67.80
2018-09-19T02:28:31.877Z,67.80
2018-09-19T02:31:01.038Z,67.80
2018-09-19T02:33:30.516Z,67.90
2018-09-19T02:36:00.065Z,68.10
2018-09-19T02:38:29.403Z,68.00
2018-09-19T02:40:58.687Z,68.10
2018-09-19T02:43:27.864Z,68.10
2018-09-19T02:45:57.103Z,68.20
2018-09-19T02:48:26.290Z,68.30
2018-09-19T02:50:55.567Z,68.40
2018-09-19T02:53:24.880Z,68.40
2018-09-19T02:55:53.950Z,68.50
2018-09-19T02:58:23.271Z,68.70
2018-09-19T03:00:52.544Z,68.80
2018-09-19T03:03:21.675Z,68.60
2018-09-19T03:05:51.370Z,68.80
2018-09-19T03:08:20.540Z,69.30
2018-09-19T03:10:49.813Z,69.40
2018-09-19T03:13:19.076Z,69.00
2018-09-19T03:15:48.261Z,69.10
2018-09-19T03:18:17.348Z,69.10
2018-09-19T03:20:46.529Z,69.70
2018-09-19T03:23:16.042Z,69.90
2018-09-19T03:25:46.099Z,70.00
2018-09-19T03:29:15.012Z,70.30
2018-09-19T03:31:44.461Z,70.30
2018-09-19T03:34:13.726Z,70.30
2018-09-19T03:36:43.577Z,70.60
2018-09-19T03:39:13.119Z,70.60
2018-09-19T03:41:42.543Z,70.90
2018-09-19T03:44:12.153Z,71.00
2018-09-19T03:46:43.142Z,71.40
2018-09-19T03:49:13.568Z,71.50
2018-09-19T03:51:45.302Z,71.60
2018-09-19T03:54:14.668Z,71.90
2018-09-19T03:56:44.081Z,72.10
2018-09-19T03:59:13.342Z,72.20
2018-09-19T04:01:43.018Z,72.20
2018-09-19T04:04:12.665Z,72.10
2018-09-19T04:06:42.969Z,72.20
2018-09-19T04:09:13.751Z,72.10
2018-09-19T04:11:43.301Z,72.10
2018-09-19T04:14:13.316Z,72.30
2018-09-19T04:16:43.460Z,72.30
2018-09-19T04:19:13.218Z,72.50
2018-09-19T04:21:52.615Z,72.50
2018-09-19T04:24:21.779Z,72.60
2018-09-19T04:26:51.496Z,72.60
2018-09-19T04:29:21.199Z,72.90
2018-09-19T04:31:50.596Z,73.10
2018-09-19T04:34:19.855Z,73.40
2018-09-19T04:36:49.060Z,73.50
2018-09-19T04:39:18.618Z,73.50
2018-09-19T04:41:49.053Z,73.50
2018-09-19T04:44:18.416Z,73.70
2018-09-19T04:46:47.913Z,73.90
2018-09-19T04:49:18.484Z,74.10
2018-09-19T04:51:48.677Z,74.10
2018-09-19T04:54:18.198Z,74.40
2018-09-19T04:56:47.695Z,74.70
2018-09-19T04:59:17.294Z,74.90
2018-09-19T05:01:46.811Z,75.20
2018-09-19T05:04:16.376Z,75.20
2018-09-19T05:06:46.005Z,75.40
2018-09-19T05:09:15.734Z,75.40
2018-09-19T05:11:45.741Z,76.40
2018-09-19T05:14:15.244Z,75.40
2018-09-19T05:16:44.733Z,75.70
2018-09-19T05:19:14.083Z,75.60
2018-09-19T05:21:43.448Z,75.50
2018-09-19T05:24:14.019Z,75.40
2018-09-19T05:26:43.215Z,75.20
2018-09-19T05:29:12.420Z,75.30
2018-09-19T05:31:42.057Z,75.30
2018-09-19T05:34:11.554Z,75.30
2018-09-19T05:36:40.843Z,75.40
2018-09-19T05:39:09.888Z,75.30
2018-09-19T05:41:38.950Z,75.30
2018-09-19T05:44:08.134Z,75.30
2018-09-19T05:46:37.527Z,75.30
2018-09-19T05:49:06.559Z,75.40
2018-09-19T05:51:37.018Z,76.30
2018-09-19T05:54:06.089Z,75.60
2018-09-19T05:56:35.520Z,75.60
2018-09-19T06:01:49.437Z,75.80
2018-09-19T06:04:18.566Z,75.60
2018-09-19T06:06:48.023Z,75.50
2018-09-19T06:09:17.989Z,75.10
2018-09-19T06:11:53.851Z,74.90
2018-09-19T06:14:23.019Z,74.40
2018-09-19T06:16:52.233Z,74.90
2018-09-19T06:19:21.347Z,73.20
2018-09-19T06:21:51.375Z,72.60
2018-09-19T06:24:20.613Z,71.80
2018-09-19T06:26:49.735Z,71.20
2018-09-19T06:29:19.194Z,70.50
2018-09-19T06:31:48.378Z,69.90
2018-09-19T06:34:17.557Z,69.10
2018-09-19T06:36:46.829Z,68.20
2018-09-19T06:39:16.260Z,67.70
2018-09-19T06:41:45.537Z,66.60
2018-09-19T06:44:14.616Z,65.70
2018-09-19T06:46:43.945Z,64.90
2018-09-19T06:49:13.784Z,64.30
2018-09-19T06:51:42.834Z,63.60
2018-09-19T06:54:12.157Z,63.10
2018-09-19T06:56:42.152Z,63.10
2018-09-19T06:59:11.837Z,61.90
2018-09-19T07:01:41.116Z,61.20
2018-09-19T07:04:10.418Z,61.30
2018-09-19T07:06:39.827Z,59.90
2018-09-19T07:09:10.650Z,59.40
2018-09-19T07:11:39.797Z,59.00
2018-09-19T07:14:09.165Z,58.30
2018-09-19T07:16:39.141Z,57.70
2018-09-19T07:19:08.603Z,57.60
2018-09-19T07:21:37.998Z,57.00
2018-09-19T07:24:07.323Z,56.40
2018-09-19T07:26:36.810Z,56.00
2018-09-19T07:29:06.925Z,55.80
2018-09-19T07:31:36.001Z,55.50
2018-09-19T07:34:05.111Z,55.00
2018-09-19T07:36:34.377Z,54.20
2018-09-19T07:39:03.947Z,53.80
2018-09-19T07:41:33.094Z,53.70
2018-09-19T07:44:02.251Z,53.20
2018-09-19T07:46:31.414Z,52.90
2018-09-19T07:49:00.604Z,52.40
2018-09-19T07:51:30.164Z,51.90
2018-09-19T07:53:59.440Z,51.60
2018-09-19T07:56:28.646Z,51.30
2018-09-19T07:58:57.751Z,50.70
2018-09-19T08:01:28.126Z,50.60
2018-09-19T08:03:58.466Z,50.10
2018-09-19T08:06:27.577Z,50.20
2018-09-19T08:08:56.703Z,50.90
2018-09-19T08:11:25.850Z,51.30
2018-09-19T08:13:55.324Z,51.50
2018-09-19T08:16:24.446Z,51.90
2018-09-19T08:18:53.589Z,52.50
2018-09-19T08:21:22.725Z,52.50
2018-09-19T08:23:51.999Z,52.70
2018-09-19T08:26:21.147Z,52.90
2018-09-19T08:28:50.287Z,52.50
2018-09-19T08:31:20.282Z,51.70
2018-09-19T08:33:49.493Z,51.00
2018-09-19T08:36:18.926Z,50.10
2018-09-19T08:38:48.184Z,49.00
2018-09-19T08:41:17.415Z,48.40
2018-09-19T08:43:46.894Z,48.40
2018-09-19T08:46:16.125Z,48.50
2018-09-19T08:48:45.465Z,48.50
2018-09-19T08:51:14.849Z,48.20
2018-09-19T08:53:44.222Z,47.50
2018-09-19T08:56:13.299Z,47.10
2018-09-19T08:58:43.510Z,46.90
2018-09-19T09:01:12.709Z,47.00
2018-09-19T09:03:41.957Z,46.90
2018-09-19T09:06:11.121Z,46.70
2018-09-19T09:08:40.224Z,46.90
2018-09-19T09:11:09.442Z,47.00
2018-09-19T09:13:38.645Z,47.00
2018-09-19T09:16:07.907Z,46.90
2018-09-19T09:18:37.073Z,47.10
2018-09-19T09:21:06.168Z,46.50
2018-09-19T09:23:35.261Z,46.10
2018-09-19T09:26:04.331Z,45.60
2018-09-19T09:28:33.427Z,45.40
2018-09-19T09:31:02.658Z,45.20
2018-09-19T09:33:31.885Z,45.00
2018-09-19T09:36:00.916Z,44.70
2018-09-19T09:38:30.085Z,44.50
2018-09-19T09:40:59.154Z,44.90
2018-09-19T09:43:28.263Z,45.30
2018-09-19T09:45:57.284Z,46.00
2018-09-19T09:48:26.323Z,45.90
2018-09-19T09:50:55.411Z,45.70
2018-09-19T09:53:24.785Z,45.70
2018-09-19T09:55:53.880Z,44.80
2018-09-19T09:58:23.116Z,44.90
2018-09-19T10:00:52.594Z,44.80
2018-09-19T10:03:21.713Z,44.70
2018-09-19T10:05:51.676Z,44.60
2018-09-19T10:08:20.726Z,44.50
2018-09-19T10:10:49.849Z,44.50
2018-09-19T10:13:19.155Z,44.70
2018-09-19T10:15:48.349Z,44.30
2018-09-19T10:18:18.014Z,44.00
2018-09-19T10:20:47.523Z,44.10
2018-09-19T10:23:16.875Z,44.50
2018-09-19T10:25:46.209Z,44.50
2018-09-19T10:28:15.381Z,44.70
2018-09-19T10:30:45.044Z,43.70
2018-09-19T10:33:14.450Z,43.50
2018-09-19T10:35:43.647Z,43.00
2018-09-19T10:38:12.844Z,42.80
2018-09-19T10:40:42.357Z,43.20
2018-09-19T10:43:16.625Z,43.50
2018-09-19T10:45:46.095Z,43.50
2018-09-19T10:48:15.461Z,43.80
2018-09-19T10:50:44.717Z,44.20
2018-09-19T10:53:13.850Z,44.30
2018-09-19T10:55:43.877Z,44.30
2018-09-19T10:58:13.111Z,44.40
2018-09-19T11:00:42.382Z,44.50
2018-09-19T11:03:11.715Z,44.70
2018-09-19T11:05:40.979Z,45.00
2018-09-19T11:08:10.288Z,45.40
2018-09-19T11:10:39.767Z,45.30
2018-09-19T11:13:15.803Z,45.20
2018-09-19T11:15:45.059Z,45.80
2018-09-19T11:18:14.345Z,46.30
2018-09-19T11:20:43.531Z,46.40
2018-09-19T11:23:12.964Z,46.30
2018-09-19T11:25:42.277Z,46.50
2018-09-19T11:28:12.584Z,46.30
2018-09-19T11:30:41.897Z,46.30
2018-09-19T11:33:11.167Z,46.50
2018-09-19T11:35:40.634Z,46.80
2018-09-19T11:38:09.925Z,46.50
2018-09-19T11:40:39.544Z,46.60
2018-09-19T11:43:08.724Z,46.90
2018-09-19T11:45:37.801Z,46.80
2018-09-19T11:48:07.043Z,46.90
2018-09-19T11:50:36.238Z,47.30
2018-09-19T11:53:09.649Z,46.60
2018-09-19T11:55:38.800Z,45.70
2018-09-19T11:58:07.972Z,45.30
2018-09-19T12:00:37.215Z,44.50
2018-09-19T12:03:06.410Z,44.70
2018-09-19T12:05:35.928Z,45.00
2018-09-19T12:08:05.282Z,45.20
2018-09-19T12:10:34.424Z,45.80
2018-09-19T12:13:04.029Z,44.90
2018-09-19T12:15:33.465Z,44.90
2018-09-19T12:18:03.313Z,44.70
2018-09-19T12:20:33.090Z,44.50
2018-09-19T12:23:02.163Z,44.20
2018-09-19T12:25:31.572Z,43.90
2018-09-19T12:28:00.702Z,43.70
2018-09-19T12:30:30.081Z,43.40
2018-09-19T12:32:59.224Z,42.90
2018-09-19T12:35:28.372Z,43.00
2018-09-19T12:37:57.617Z,43.00
2018-09-19T12:40:27.082Z,43.20
2018-09-19T12:42:56.310Z,43.70
2018-09-19T12:45:25.520Z,43.30
2018-09-19T12:47:55.020Z,43.50
2018-09-19T12:50:24.300Z,43.90
2018-09-19T12:52:53.460Z,43.90
2018-09-19T12:55:22.664Z,43.50
2018-09-19T12:57:51.912Z,43.00
2018-09-19T13:00:20.993Z,43.30
2018-09-19T13:02:50.137Z,42.80
2018-09-19T13:05:19.219Z,42.60
2018-09-19T13:07:48.487Z,42.70
2018-09-19T13:10:17.701Z,43.00
2018-09-19T13:12:47.606Z,43.80
2018-09-19T13:15:16.777Z,43.20
2018-09-19T13:17:45.858Z,43.50
2018-09-19T13:20:14.999Z,43.50
2018-09-19T13:22:44.958Z,43.70
2018-09-19T13:25:14.126Z,43.80
2018-09-19T13:27:43.329Z,43.80
2018-09-19T13:30:12.618Z,43.80
2018-09-19T13:32:41.888Z,43.90
2018-09-19T13:35:11.672Z,44.20
2018-09-19T13:37:40.870Z,44.10
2018-09-19T13:40:10.149Z,43.90
2018-09-19T13:42:39.791Z,44.10
2018-09-19T13:45:09.162Z,44.00
2018-09-19T13:47:38.341Z,44.20
2018-09-19T13:51:43.649Z,44.00
2018-09-19T13:54:12.835Z,43.70
2018-09-19T13:56:42.847Z,43.70
2018-09-19T13:59:18.715Z,44.00
2018-09-19T14:01:47.841Z,43.50
2018-09-19T14:04:17.493Z,43.70
2018-09-19T14:06:46.672Z,43.40
2018-09-19T14:09:15.965Z,43.80
2018-09-19T14:11:45.084Z,43.30
2018-09-19T14:14:14.198Z,43.30
2018-09-19T14:16:44.492Z,43.50
2018-09-19T14:19:15.375Z,43.30
2018-09-19T14:21:44.507Z,43.10
2018-09-19T14:24:13.715Z,42.80
2018-09-19T14:26:43.002Z,42.80
2018-09-19T14:29:12.431Z,43.20
2018-09-19T14:31:41.576Z,43.40
2018-09-19T14:34:10.787Z,43.10
2018-09-19T14:36:39.901Z,43.10
2018-09-19T14:39:09.317Z,43.30
2018-09-19T14:41:38.409Z,43.40
2018-09-19T14:44:07.498Z,43.30
2018-09-19T14:46:36.593Z,43.30
2018-09-19T14:49:06.682Z,43.20
2018-09-19T14:51:36.411Z,43.10
2018-09-19T14:54:06.302Z,43.20
2018-09-19T14:56:36.217Z,42.70
2018-09-19T14:59:05.629Z,42.80
2018-09-19T15:01:34.806Z,43.00
2018-09-19T15:04:03.945Z,43.20
2018-09-19T15:06:33.054Z,43.00
2018-09-19T15:09:02.223Z,42.90
2018-09-19T15:11:31.347Z,42.60
2018-09-19T15:14:00.430Z,42.50
2018-09-19T15:16:29.790Z,42.70
2018-09-19T15:18:58.850Z,42.90
2018-09-19T15:21:27.986Z,42.80
2018-09-19T15:23:57.043Z,42.60
2018-09-19T15:26:26.243Z,43.00
2018-09-19T15:28:55.421Z,42.80
2018-09-19T15:31:24.614Z,42.70
2018-09-19T15:33:53.760Z,42.40
2018-09-19T15:36:23.428Z,42.40
2018-09-19T15:38:52.778Z,42.50
2018-09-19T15:41:22.135Z,42.40
2018-09-19T15:43:51.413Z,42.50
2018-09-19T15:46:20.595Z,42.60
2018-09-19T15:48:49.887Z,42.70
2018-09-19T15:51:19.015Z,42.70
2018-09-19T15:53:48.487Z,42.70
2018-09-19T15:56:17.629Z,42.70
2018-09-19T15:58:46.658Z,42.60
2018-09-19T16:01:15.940Z,42.60
2018-09-19T16:03:46.309Z,42.60
2018-09-19T16:06:15.926Z,42.50
2018-09-19T16:08:45.164Z,42.50
2018-09-19T16:11:14.661Z,42.70
2018-09-19T16:13:45.528Z,43.50
2018-09-19T16:16:14.823Z,42.90
2018-09-19T16:18:44.025Z,43.00
2018-09-19T16:21:13.254Z,43.20
2018-09-19T16:23:42.760Z,43.20
2018-09-19T16:26:12.027Z,43.30
2018-09-19T16:28:41.935Z,43.30
2018-09-19T16:31:12.130Z,43.40
2018-09-19T16:33:42.195Z,43.50
2018-09-19T16:36:11.809Z,43.70
2018-09-19T16:38:41.433Z,43.80
2018-09-19T16:41:11.025Z,44.00
2018-09-19T16:43:40.224Z,44.10
2018-09-19T16:46:09.417Z,44.20
2018-09-19T16:48:38.725Z,44.50
2018-09-19T16:51:07.837Z,44.50
2018-09-19T16:53:36.930Z,44.50
2018-09-19T16:56:06.019Z,44.50
2018-09-19T16:58:35.228Z,44.30
2018-09-19T17:01:04.793Z,44.30
2018-09-19T17:03:33.959Z,44.30
2018-09-19T17:06:03.214Z,44.40
2018-09-19T17:08:32.349Z,44.80
2018-09-19T17:11:01.589Z,44.70
2018-09-19T17:13:30.723Z,44.80
2018-09-19T17:16:06.663Z,44.60
2018-09-19T17:18:35.848Z,44.90
2018-09-19T17:21:05.008Z,44.80
2018-09-19T17:23:36.188Z,44.90
2018-09-19T17:26:05.421Z,45.10
2018-09-19T17:28:35.647Z,45.10
2018-09-19T17:31:05.000Z,45.20
2018-09-19T17:33:37.116Z,45.10
2018-09-19T17:36:06.589Z,45.30
2018-09-19T17:38:35.689Z,45.30
2018-09-19T17:41:04.836Z,45.30
2018-09-19T17:43:34.041Z,45.40
2018-09-19T17:46:03.195Z,45.50
2018-09-19T17:48:32.325Z,45.50
2018-09-19T17:51:01.632Z,45.60
2018-09-19T17:53:30.958Z,45.70
2018-09-19T17:56:00.111Z,45.80
2018-09-19T17:58:29.344Z,46.00
2018-09-19T18:00:58.479Z,46.00
2018-09-19T18:03:27.644Z,46.10
2018-09-19T18:05:56.876Z,46.30
2018-09-19T18:08:26.000Z,47.00
2018-09-19T18:10:55.280Z,46.60
2018-09-19T18:13:24.308Z,46.70
2018-09-19T18:15:54.527Z,46.80
2018-09-19T18:18:23.714Z,47.70
2018-09-19T18:20:52.965Z,47.00
2018-09-19T18:23:22.201Z,47.40
2018-09-19T18:25:51.986Z,47.40
2018-09-19T18:28:21.302Z,47.60
2018-09-19T18:30:50.640Z,47.80
2018-09-19T18:33:20.426Z,47.90
2018-09-19T18:35:49.750Z,47.90
2018-09-19T18:38:19.112Z,48.00
2018-09-19T18:40:48.319Z,48.30
2018-09-19T18:43:18.344Z,48.40
2018-09-19T18:46:11.204Z,48.60
2018-09-19T18:48:59.053Z,48.80
2018-09-19T18:54:40.549Z,49.20
2018-09-19T18:57:28.970Z,49.30
2018-09-19T19:00:05.734Z,49.70
2018-09-19T19:02:42.255Z,49.80
2018-09-19T19:09:43.839Z,50.10
2018-09-19T19:12:32.444Z,50.30
2018-09-19T19:15:25.462Z,50.50
2018-09-19T19:18:50.990Z,50.70
2018-09-19T19:26:17.046Z,51.10
2018-09-19T19:28:46.584Z,51.10
2018-09-19T19:31:16.867Z,51.50
2018-09-19T19:33:46.213Z,51.50
2018-09-19T19:36:15.829Z,51.80
2018-09-19T19:38:45.007Z,51.90
2018-09-19T19:41:14.329Z,52.10
2018-09-19T19:43:43.883Z,52.20
2018-09-19T19:46:13.172Z,52.30
2018-09-19T19:48:42.405Z,52.60
2018-09-19T19:51:13.490Z,52.50
2018-09-19T19:53:43.617Z,52.70
2018-09-19T19:56:14.006Z,52.80
2018-09-19T19:58:43.326Z,53.00
2018-09-19T20:01:12.972Z,53.20
2018-09-19T20:03:42.121Z,53.20
2018-09-19T20:06:11.678Z,53.30
2018-09-19T20:08:41.641Z,53.50
2018-09-19T20:11:11.191Z,53.40
2018-09-19T20:13:40.447Z,53.50
2018-09-19T20:16:09.732Z,53.60
2018-09-19T20:18:39.261Z,53.80
2018-09-19T20:21:08.897Z,53.80
2018-09-19T20:23:41.786Z,53.80
2018-09-19T20:26:11.749Z,53.90
2018-09-19T20:28:41.294Z,54.00
2018-09-19T20:31:11.204Z,54.20
2018-09-19T20:33:40.663Z,54.20
2018-09-19T20:36:10.581Z,54.20
2018-09-19T20:38:40.313Z,54.30
2018-09-19T20:41:09.732Z,54.40
2018-09-19T20:43:39.604Z,54.50
2018-09-19T20:46:09.557Z,54.50
2018-09-19T20:48:38.729Z,54.70
2018-09-19T20:51:07.932Z,54.90
2018-09-19T20:53:37.257Z,55.00
2018-09-19T20:56:06.429Z,55.20
2018-09-19T20:58:35.976Z,55.20
2018-09-19T21:01:05.346Z,55.40
2018-09-19T21:03:35.133Z,55.50
2018-09-19T21:06:04.890Z,55.70
2018-09-19T21:08:34.151Z,55.90
2018-09-19T21:11:03.409Z,56.00
2018-09-19T21:13:32.649Z,56.10
2018-09-19T21:16:01.927Z,56.10
2018-09-19T21:18:31.096Z,56.10
2018-09-19T21:21:00.817Z,56.30
2018-09-19T21:23:29.972Z,56.30
2018-09-19T21:25:59.107Z,56.40
2018-09-19T21:28:28.507Z,56.50
2018-09-19T21:30:57.591Z,57.30
2018-09-19T21:33:26.836Z,56.70
2018-09-19T21:35:56.041Z,56.90
2018-09-19T21:38:25.280Z,57.00
2018-09-19T21:40:54.779Z,57.10
2018-09-19T21:43:23.932Z,57.40
2018-09-19T21:45:53.739Z,57.40
2018-09-19T21:48:23.022Z,57.50
2018-09-19T21:50:52.651Z,57.60
2018-09-19T21:53:21.768Z,57.70
2018-09-19T21:55:50.879Z,57.90
2018-09-19T21:58:20.073Z,58.00
2018-09-19T22:00:54.817Z,58.10
2018-09-19T22:03:24.180Z,58.10
2018-09-19T22:05:53.608Z,58.10
2018-09-19T22:08:23.250Z,58.20
2018-09-19T22:10:52.980Z,58.70
2018-09-19T22:13:22.147Z,58.30
2018-09-19T22:15:51.311Z,58.50
2018-09-19T22:18:20.556Z,58.40
2018-09-19T22:20:49.673Z,58.60
2018-09-19T22:23:19.758Z,58.70
2018-09-19T22:25:48.808Z,58.80
2018-09-19T22:28:18.232Z,58.90
2018-09-19T22:30:47.355Z,59.00
2018-09-19T22:33:17.277Z,59.30
2018-09-19T22:35:47.345Z,59.30
2018-09-19T22:38:16.692Z,59.40
2018-09-19T22:40:47.090Z,59.50
2018-09-19T22:43:16.269Z,59.70
2018-09-19T22:45:46.007Z,59.60
2018-09-19T22:48:15.156Z,59.90
2018-09-19T22:50:44.473Z,60.00
2018-09-19T22:53:13.747Z,61.50
2018-09-19T22:55:43.244Z,60.50
2018-09-19T22:58:12.689Z,60.40
2018-09-19T23:00:42.120Z,60.30
2018-09-19T23:03:11.813Z,60.30
2018-09-19T23:05:41.288Z,60.10
2018-09-19T23:08:11.275Z,60.20
2018-09-19T23:10:40.553Z,60.20
2018-09-19T23:13:10.865Z,60.30
2018-09-19T23:15:40.857Z,60.40
2018-09-19T23:18:11.467Z,60.50
2018-09-19T23:20:40.547Z,60.50
2018-09-19T23:23:09.748Z,60.60
2018-09-19T23:25:40.782Z,60.70
2018-09-19T23:28:09.868Z,61.00
2018-09-19T23:30:39.262Z,60.90
2018-09-19T23:33:08.436Z,61.00
2018-09-19T23:35:38.087Z,61.00
2018-09-19T23:38:07.584Z,61.20
2018-09-19T23:40:36.958Z,61.20
2018-09-19T23:43:06.169Z,61.20
2018-09-19T23:45:35.468Z,61.40
2018-09-19T23:48:04.611Z,61.60
2018-09-19T23:50:33.647Z,61.70
2018-09-19T23:53:02.792Z,61.60
2018-09-19T23:55:32.080Z,61.90
2018-09-19T23:58:01.869Z,61.90
